Iver Bright — ZDKU4 — position and weather

sailwx.info

Track history (hours):
 
Tides and Currents Weather Stations Pressure Air Temp Water Temp Dewpoint Dewpoint Depression Visibility Wind Speed Wind Dir Waves Ship Positions

Iver Bright

Last reported at 2017-Aug-20 10:16 UTC. Time now 2017-Aug-22 07:13 UTC.
Position N 37°13' E 015°13'.

Length 111 m; draft 5.1 m.

Type: Tanker. MMSI: 236111811.

Date/timePositionNaut miles runAvg speedWind from/ knotsBaromVisibWave heightAir tempDewpointWater temp
2017-Aug-20 10:16N 37°13' E 015°13'0 0.0
2017-Aug-19 17:33N 37°13' E 015°13'0 0.1
2017-Aug-19 17:30N 37°13' E 015°13'0 0.1
2017-Aug-19 17:00N 37°13' E 015°13'0 0.1
2017-Aug-19 16:27N 37°13' E 015°13'0 0.0
2017-Aug-19 14:58N 37°13' E 015°13'0 0.0
2017-Aug-19 11:50N 37°13' E 015°13'0 0.1
2017-Aug-19 11:26N 37°13' E 015°13'0 0.1
2017-Aug-19 11:00N 37°13' E 015°13'0 0.0
2017-Aug-19 10:29N 37°13' E 015°13'0 0.0
2017-Aug-19 07:26N 37°13' E 015°13'0 0.0
2017-Aug-19 06:58N 37°13' E 015°13'0 0.0
2017-Aug-18 09:43N 37°13' E 015°13'0 0.0
2017-Aug-17 22:50N 37°13' E 015°13'  
2017-Aug-14 01:32N 36°28' E 014°43'112.8
2017-Aug-14 01:30N 36°28' E 014°42'912.4
2017-Aug-14 00:48N 36°28' E 014°32'412.4
2017-Aug-14 00:30N 36°29' E 014°27'612.3
2017-Aug-14 00:00N 36°31' E 014°20'612.2
2017-Aug-13 23:30N 36°33' E 014°13'612.2
2017-Aug-13 23:00N 36°35' E 014°05'612.3
2017-Aug-13 22:30N 36°37' E 013°58'612.3
2017-Aug-13 22:00N 36°38' E 013°51'612.3
2017-Aug-13 21:30N 36°40' E 013°43'612.3
2017-Aug-13 20:59N 36°42' E 013°36'612.4
2017-Aug-13 20:30N 36°43' E 013°28'612.8
2017-Aug-13 20:00N 36°45' E 013°21'613.0
2017-Aug-13 19:30N 36°47' E 013°13'713.0
2017-Aug-13 19:00N 36°49' E 013°05'2213.2
2017-Aug-13 17:22N 36°56' E 012°40'513.2
2017-Aug-13 16:59N 36°57' E 012°34'613.0
2017-Aug-13 16:29N 36°59' E 012°26'  
2017-Aug-10 13:07N 34°44' E 010°46'0 0.0
2017-Aug-10 12:55N 34°44' E 010°46'0 0.0
2017-Aug-10 12:28N 34°44' E 010°46'0 0.0
2017-Aug-10 11:58N 34°44' E 010°46'0 0.0
2017-Aug-10 11:16N 34°44' E 010°46'  
Track history (hours):
 
Tides and Currents Weather Stations Pressure Air Temp Water Temp Dewpoint Dewpoint Depression Visibility Wind Speed Wind Dir Waves Ship Positions

Iver Bright

Last reported at 2017-Aug-20 10:16 UTC. Time now 2017-Aug-22 07:13 UTC.
Position N 37°13' E 015°13'.

Length 111 m; draft 5.1 m.

Type: Tanker. MMSI: 236111811.

Date/timePositionNaut miles runAvg speedWind from/ knotsBaromVisibWave heightAir tempDewpointWater temp
2017-Aug-20 10:16N 37°13' E 015°13'0 0.0
2017-Aug-19 17:33N 37°13' E 015°13'0 0.1
2017-Aug-19 17:30N 37°13' E 015°13'0 0.1
2017-Aug-19 17:00N 37°13' E 015°13'0 0.1
2017-Aug-19 16:27N 37°13' E 015°13'0 0.0
2017-Aug-19 14:58N 37°13' E 015°13'0 0.0
2017-Aug-19 11:50N 37°13' E 015°13'0 0.1
2017-Aug-19 11:26N 37°13' E 015°13'0 0.1
2017-Aug-19 11:00N 37°13' E 015°13'0 0.0
2017-Aug-19 10:29N 37°13' E 015°13'0 0.0
2017-Aug-19 07:26N 37°13' E 015°13'0 0.0
2017-Aug-19 06:58N 37°13' E 015°13'0 0.0
2017-Aug-18 09:43N 37°13' E 015°13'0 0.0
2017-Aug-17 22:50N 37°13' E 015°13'  
2017-Aug-14 01:32N 36°28' E 014°43'112.8
2017-Aug-14 01:30N 36°28' E 014°42'912.4
2017-Aug-14 00:48N 36°28' E 014°32'412.4
2017-Aug-14 00:30N 36°29' E 014°27'612.3
2017-Aug-14 00:00N 36°31' E 014°20'612.2
2017-Aug-13 23:30N 36°33' E 014°13'612.2
2017-Aug-13 23:00N 36°35' E 014°05'612.3
2017-Aug-13 22:30N 36°37' E 013°58'612.3
2017-Aug-13 22:00N 36°38' E 013°51'612.3
2017-Aug-13 21:30N 36°40' E 013°43'612.3
2017-Aug-13 20:59N 36°42' E 013°36'612.4
2017-Aug-13 20:30N 36°43' E 013°28'612.8
2017-Aug-13 20:00N 36°45' E 013°21'613.0
2017-Aug-13 19:30N 36°47' E 013°13'713.0
2017-Aug-13 19:00N 36°49' E 013°05'2213.2
2017-Aug-13 17:22N 36°56' E 012°40'513.2
2017-Aug-13 16:59N 36°57' E 012°34'613.0
2017-Aug-13 16:29N 36°59' E 012°26'  
2017-Aug-10 13:07N 34°44' E 010°46'0 0.0
2017-Aug-10 12:55N 34°44' E 010°46'0 0.0
2017-Aug-10 12:28N 34°44' E 010°46'0 0.0
2017-Aug-10 11:58N 34°44' E 010°46'0 0.0
2017-Aug-10 11:16N 34°44' E 010°46'  

Dump ship's entire track history